Time;durP1;ratioP1;P1;durP2;ratioP2;P2;SDS_P1;SDS_P2;PMS_P1;PMS_P2;Temp;Humidity;BMP_temperature;BMP_pressure;BME280_temperature;BME280_humidity;BME280_pressure;Samples;Min_cycle;Max_cycle;Signal;HPM_P1;HPM_P2
2023/06/04 00:02:16;;;;;;;7.35;2.95;;;;;;;13.98;100.00;102149.31;4952573;28;20062;-69
2023/06/04 00:04:43;;;;;;;8.48;3.15;;;;;;;13.87;100.00;102154.88;4970855;28;20054;-69
2023/06/04 00:07:10;;;;;;;6.45;2.30;;;;;;;14.03;100.00;102152.66;4970224;28;20049;-69
2023/06/04 00:09:36;;;;;;;7.85;3.33;;;;;;;14.09;100.00;102151.63;4970148;28;20053;-70
2023/06/04 00:12:03;;;;;;;7.65;3.05;;;;;;;14.02;100.00;102146.56;4969316;28;20081;-70
2023/06/04 00:14:30;;;;;;;8.05;3.08;;;;;;;13.99;100.00;102143.16;4971181;28;20065;-70
2023/06/04 00:16:57;;;;;;;8.13;3.28;;;;;;;14.03;100.00;102153.53;4972021;28;20062;-70
2023/06/04 00:19:24;;;;;;;9.02;3.58;;;;;;;13.96;100.00;102149.34;4973547;28;20082;-70
2023/06/04 00:21:51;;;;;;;7.90;3.35;;;;;;;13.99;100.00;102156.31;4971481;28;20074;-70
2023/06/04 00:24:17;;;;;;;9.48;4.10;;;;;;;13.82;100.00;102135.72;4973318;28;20477;-70
2023/06/04 00:26:44;;;;;;;10.75;3.80;;;;;;;13.81;100.00;102141.88;4972916;28;20061;-70
2023/06/04 00:29:11;;;;;;;10.00;3.80;;;;;;;13.85;100.00;102141.78;4973658;28;20055;-70
2023/06/04 00:31:38;;;;;;;9.65;3.95;;;;;;;13.83;100.00;102146.22;4974335;28;20062;-69
2023/06/04 00:34:05;;;;;;;13.98;5.32;;;;;;;13.80;100.00;102155.97;4974800;28;20133;-70
2023/06/04 00:36:32;;;;;;;11.10;4.25;;;;;;;13.73;100.00;102144.75;4973982;28;20046;-70
2023/06/04 00:38:59;;;;;;;11.38;5.05;;;;;;;13.75;100.00;102142.94;4974174;28;20049;-70
2023/06/04 00:41:26;;;;;;;8.45;3.63;;;;;;;13.69;100.00;102140.50;4974149;28;20051;-70
2023/06/04 00:43:56;;;;;;;8.27;3.30;;;;;;;13.74;100.00;102133.31;4972936;28;20508;-70
2023/06/04 00:46:25;;;;;;;10.75;3.83;;;;;;;13.71;100.00;102130.78;4972805;28;20462;-70
2023/06/04 00:48:53;;;;;;;10.45;3.78;;;;;;;13.72;100.00;102148.28;4973642;28;20055;-70
2023/06/04 00:51:21;;;;;;;10.05;4.65;;;;;;;13.68;100.00;102144.00;4973908;28;20082;-70
2023/06/04 00:53:51;;;;;;;9.05;2.92;;;;;;;13.66;100.00;102143.19;4973348;28;20481;-70
2023/06/04 00:56:19;;;;;;;9.27;3.70;;;;;;;13.69;100.00;102137.84;4973289;28;20060;-70
2023/06/04 00:58:46;;;;;;;7.80;3.13;;;;;;;13.59;100.00;102136.38;4974034;28;20509;-70
2023/06/04 01:01:32;;;;;;;7.82;2.95;;;;;;;13.63;100.00;102111.69;4973112;28;20086;-69
2023/06/04 01:04:02;;;;;;;11.02;3.35;;;;;;;13.63;100.00;102127.47;4963491;28;20058;-70
2023/06/04 01:06:39;;;;;;;8.93;3.22;;;;;;;13.57;100.00;102125.03;4969065;28;20500;-70
2023/06/04 01:09:07;;;;;;;6.50;2.45;;;;;;;13.50;100.00;102128.75;4973397;28;20086;-70
2023/06/04 01:11:39;;;;;;;8.65;3.28;;;;;;;13.61;100.00;102139.81;4968819;28;20776;-69
2023/06/04 01:14:10;;;;;;;9.32;3.67;;;;;;;13.53;100.00;102132.16;4969855;28;20047;-70
2023/06/04 01:16:50;;;;;;;7.93;3.10;;;;;;;13.59;100.00;102134.59;4972769;28;20101;-70
2023/06/04 01:19:47;;;;;;;9.43;4.57;;;;;;;13.66;100.00;102140.56;4973350;28;20540;-70
2023/06/04 01:22:28;;;;;;;7.07;3.05;;;;;;;13.67;100.00;102137.91;4972870;28;20050;-70
2023/06/04 01:24:59;;;;;;;7.55;3.22;;;;;;;13.63;100.00;102132.75;4972200;28;20050;-70
2023/06/04 01:27:26;;;;;;;7.03;2.67;;;;;;;13.68;100.00;102128.22;4970071;28;20142;-70
2023/06/04 01:29:56;;;;;;;8.63;3.05;;;;;;;13.62;100.00;102121.38;4973621;28;20055;-70
2023/06/04 01:32:24;;;;;;;7.47;3.20;;;;;;;13.53;100.00;102119.00;4972645;28;20055;-70
2023/06/04 01:34:51;;;;;;;7.82;3.28;;;;;;;13.65;100.00;102126.56;4972955;28;20050;-70
2023/06/04 01:37:18;;;;;;;6.50;2.50;;;;;;;13.78;100.00;102134.09;4975231;28;20054;-70
2023/06/04 01:39:45;;;;;;;7.60;2.97;;;;;;;13.66;100.00;102136.16;4973035;28;20057;-70
2023/06/04 01:42:12;;;;;;;6.10;2.38;;;;;;;13.67;100.00;102124.72;4973265;28;20404;-70
2023/06/04 01:44:38;;;;;;;9.85;4.32;;;;;;;13.60;100.00;102110.03;4972969;28;20046;-70
2023/06/04 01:47:05;;;;;;;9.77;4.07;;;;;;;13.57;100.00;102122.41;4969799;28;20046;-70
2023/06/04 01:49:32;;;;;;;11.57;4.20;;;;;;;13.54;100.00;102120.72;4973622;28;20093;-70
2023/06/04 01:51:58;;;;;;;11.25;4.03;;;;;;;13.40;100.00;102128.13;4972895;28;20055;-69
2023/06/04 01:54:25;;;;;;;11.90;4.22;;;;;;;13.33;100.00;102129.19;4972684;28;20113;-71
2023/06/04 01:56:52;;;;;;;9.95;3.35;;;;;;;13.47;100.00;102121.78;4965983;28;20091;-69
2023/06/04 01:59:19;;;;;;;8.18;3.38;;;;;;;13.45;100.00;102126.22;4972526;28;20050;-69
2023/06/04 02:01:45;;;;;;;13.90;4.63;;;;;;;13.37;100.00;102128.19;4971742;28;20082;-70
2023/06/04 02:04:12;;;;;;;9.73;4.13;;;;;;;13.23;100.00;102123.31;4971922;28;20390;-69
2023/06/04 02:06:39;;;;;;;10.32;3.00;;;;;;;13.28;100.00;102132.78;4953785;28;20053;-69
2023/06/04 02:09:06;;;;;;;8.65;2.63;;;;;;;13.24;100.00;102130.28;4972496;28;20047;-70
2023/06/04 02:11:32;;;;;;;9.35;3.58;;;;;;;13.22;100.00;102126.81;4972647;28;20488;-70
2023/06/04 02:13:59;;;;;;;8.32;2.95;;;;;;;13.16;100.00;102138.38;4984347;28;20059;-70
2023/06/04 02:16:26;;;;;;;9.05;2.90;;;;;;;13.20;100.00;102131.25;4972098;28;20143;-70
2023/06/04 02:18:53;;;;;;;7.30;2.75;;;;;;;13.17;100.00;102128.72;4971431;28;20089;-69
2023/06/04 02:21:20;;;;;;;7.75;3.03;;;;;;;13.07;100.00;102123.69;4971232;28;20054;-70
2023/06/04 02:23:46;;;;;;;8.75;3.35;;;;;;;13.27;100.00;102136.31;4971851;28;20060;-70
2023/06/04 02:26:14;;;;;;;10.90;4.18;;;;;;;13.24;100.00;102143.41;4972353;28;20408;-70
2023/06/04 02:28:41;;;;;;;8.43;3.40;;;;;;;13.18;100.00;102140.97;4971581;28;20077;-70
2023/06/04 02:31:08;;;;;;;7.90;3.08;;;;;;;13.14;100.00;102137.56;4972397;28;20043;-70
2023/06/04 02:33:35;;;;;;;9.15;2.80;;;;;;;13.09;100.00;102135.03;4972558;28;20056;-70
2023/06/04 02:36:02;;;;;;;8.63;3.40;;;;;;;13.24;100.00;102143.41;4971567;28;20051;-70
2023/06/04 02:38:28;;;;;;;9.43;3.10;;;;;;;13.21;100.00;102143.50;4971617;28;20517;-70
2023/06/04 02:40:55;;;;;;;8.32;2.83;;;;;;;13.13;100.00;102145.47;4972110;28;20062;-70
2023/06/04 02:43:22;;;;;;;8.38;2.80;;;;;;;13.00;100.00;102144.94;4970954;28;20065;-70
2023/06/04 02:45:49;;;;;;;11.18;2.90;;;;;;;12.98;100.00;102136.19;4970102;28;20082;-70
2023/06/04 02:48:15;;;;;;;9.15;2.95;;;;;;;13.02;100.00;102151.00;4971158;28;20051;-70
2023/06/04 02:50:42;;;;;;;8.98;3.33;;;;;;;13.08;100.00;102143.84;4971382;28;20409;-70
2023/06/04 02:53:09;;;;;;;8.93;2.95;;;;;;;13.05;100.00;102129.88;4971236;28;20130;-68
2023/06/04 02:55:36;;;;;;;7.72;2.97;;;;;;;13.03;100.00;102132.56;4971301;28;20098;-69
2023/06/04 02:58:02;;;;;;;9.05;3.33;;;;;;;13.04;100.00;102131.66;4971785;28;20063;-70
2023/06/04 03:00:29;;;;;;;7.68;3.13;;;;;;;12.99;100.00;102149.31;4971346;28;20050;-70
2023/06/04 03:03:01;;;;;;;8.75;3.50;;;;;;;12.93;100.00;102151.25;4971138;28;20170;-70
2023/06/04 03:05:31;;;;;;;8.07;3.10;;;;;;;12.94;100.00;102147.69;4952749;28;20058;-70
2023/06/04 03:08:00;;;;;;;10.38;3.05;;;;;;;12.86;100.00;102116.38;4963793;28;20450;-70
2023/06/04 03:10:27;;;;;;;9.88;3.03;;;;;;;12.93;100.00;102146.00;4957462;28;20054;-70
2023/06/04 03:12:54;;;;;;;7.82;2.92;;;;;;;12.91;100.00;102143.41;4971212;28;21986;-70
2023/06/04 03:15:21;;;;;;;9.23;3.05;;;;;;;12.80;100.00;102137.53;4970486;28;20130;-70
2023/06/04 03:17:48;;;;;;;7.50;2.72;;;;;;;12.76;100.00;102147.25;4971253;28;20058;-70
2023/06/04 03:20:15;;;;;;;8.57;3.17;;;;;;;12.76;100.00;102157.75;4970493;28;20047;-70
2023/06/04 03:22:42;;;;;;;8.73;2.90;;;;;;;12.57;100.00;102117.06;4969622;28;20524;-69
2023/06/04 03:25:09;;;;;;;9.40;2.80;;;;;;;12.77;100.00;102142.88;4970559;28;20508;-69
2023/06/04 03:27:36;;;;;;;7.65;2.88;;;;;;;12.81;100.00;102155.88;4970733;28;20515;-70
2023/06/04 03:30:03;;;;;;;7.93;3.00;;;;;;;12.82;100.00;102152.38;4969373;28;20042;-70
2023/06/04 03:32:30;;;;;;;7.78;2.63;;;;;;;12.82;100.00;102148.84;4970888;28;20043;-70
2023/06/04 03:34:56;;;;;;;8.13;2.40;;;;;;;12.88;100.00;102146.09;4970213;28;20105;-69
2023/06/04 03:37:23;;;;;;;6.82;2.67;;;;;;;12.84;100.00;102155.81;4969633;28;20147;-69
2023/06/04 03:39:50;;;;;;;8.65;2.72;;;;;;;12.85;100.00;102144.38;4971342;28;20110;-70
2023/06/04 03:42:17;;;;;;;8.93;3.03;;;;;;;13.05;100.00;102151.81;4970579;28;20508;-70
2023/06/04 03:44:44;;;;;;;7.68;2.80;;;;;;;12.89;100.00;102153.94;4970185;28;20348;-70
2023/06/04 03:47:10;;;;;;;8.95;3.63;;;;;;;12.87;100.00;102147.88;4970865;28;20046;-70
2023/06/04 03:49:37;;;;;;;8.85;3.28;;;;;;;12.90;100.00;102145.13;4970798;28;20057;-69
2023/06/04 03:52:04;;;;;;;7.53;2.90;;;;;;;13.00;100.00;102156.31;4965358;28;20082;-70
2023/06/04 03:54:31;;;;;;;6.93;2.45;;;;;;;13.03;100.00;102157.97;4968471;28;20051;-70
2023/06/04 03:56:58;;;;;;;6.10;2.38;;;;;;;12.98;100.00;102139.72;4974406;28;20145;-70
2023/06/04 03:59:24;;;;;;;9.90;2.83;;;;;;;13.11;100.00;102156.03;4972968;28;20047;-69
2023/06/04 04:01:51;;;;;;;6.97;2.22;;;;;;;13.03;100.00;102147.47;4973028;28;20130;-71
2023/06/04 04:04:18;;;;;;;10.55;2.80;;;;;;;12.97;100.00;102151.13;4975136;28;20046;-69
2023/06/04 04:06:45;;;;;;;10.25;3.70;;;;;;;12.85;100.00;102161.94;4974106;28;20448;-70
2023/06/04 04:09:11;;;;;;;7.55;2.85;;;;;;;12.75;100.00;102160.41;4974720;28;20386;-70
2023/06/04 04:11:38;;;;;;;7.28;2.55;;;;;;;12.68;100.00;102155.31;4977309;28;20415;-70
2023/06/04 04:14:05;;;;;;;8.82;2.92;;;;;;;12.83;100.00;102159.34;4980641;28;20070;-70
2023/06/04 04:16:32;;;;;;;8.30;2.85;;;;;;;12.87;100.00;102155.75;4973976;28;20081;-71
2023/06/04 04:18:58;;;;;;;9.27;2.75;;;;;;;12.92;100.00;102166.13;4974205;28;20046;-70
2023/06/04 04:21:26;;;;;;;7.78;2.67;;;;;;;13.00;100.00;102148.41;4953750;29;20548;-70
2023/06/04 04:23:52;;;;;;;9.10;2.95;;;;;;;13.00;100.00;102166.81;4965155;28;20109;-70
2023/06/04 04:26:19;;;;;;;7.45;2.92;;;;;;;12.94;100.00;102156.44;4973647;28;20058;-70
2023/06/04 04:28:46;;;;;;;9.02;3.22;;;;;;;12.93;100.00;102167.88;4973747;28;20125;-70
2023/06/04 04:31:14;;;;;;;9.05;3.65;;;;;;;12.80;100.00;102159.44;4974709;28;20058;-70
2023/06/04 04:33:41;;;;;;;10.45;3.53;;;;;;;12.87;100.00;102168.00;4973866;28;20094;-70
2023/06/04 04:36:13;;;;;;;9.73;2.70;;;;;;;12.81;100.00;102148.00;4973342;28;20097;-70
2023/06/04 04:38:41;;;;;;;9.00;3.33;;;;;;;12.80;100.00;102162.06;4974156;28;20421;-70
2023/06/04 04:41:08;;;;;;;12.23;3.88;;;;;;;12.93;100.00;102164.41;4974768;28;20074;-70
2023/06/04 04:43:39;;;;;;;9.98;3.30;;;;;;;12.83;100.00;102153.22;4973801;28;20476;-70
2023/06/04 04:46:07;;;;;;;11.65;3.67;;;;;;;12.78;100.00;102165.63;4957710;28;20055;-70
2023/06/04 04:48:33;;;;;;;7.47;2.88;;;;;;;12.72;100.00;102156.97;4973970;28;20086;-70
2023/06/04 04:51:00;;;;;;;7.80;3.22;;;;;;;12.82;100.00;102155.00;4974149;28;20053;-70
2023/06/04 04:53:27;;;;;;;8.15;3.17;;;;;;;12.71;100.00;102150.00;4974161;28;20501;-70
2023/06/04 04:55:54;;;;;;;7.90;3.13;;;;;;;12.77;100.00;102158.66;4973356;28;20133;-70
2023/06/04 04:58:21;;;;;;;9.55;3.15;;;;;;;12.71;100.00;102144.75;4973239;28;20521;-70
2023/06/04 05:00:48;;;;;;;7.88;2.58;;;;;;;12.80;100.00;102155.91;4973907;28;20405;-70
2023/06/04 05:03:14;;;;;;;6.97;2.53;;;;;;;12.76;100.00;102154.28;4972071;28;20050;-71
2023/06/04 05:05:42;;;;;;;9.30;2.85;;;;;;;12.75;100.00;102157.78;4963060;28;20055;-70
2023/06/04 05:08:08;;;;;;;8.50;2.95;;;;;;;12.79;100.00;102155.06;4966656;28;20057;-70
2023/06/04 05:10:38;;;;;;;8.25;2.60;;;;;;;12.79;100.00;102152.44;4973927;28;20047;-71
2023/06/04 05:13:06;;;;;;;8.82;2.38;;;;;;;12.85;100.00;102152.28;4972177;28;20562;-71
2023/06/04 05:15:33;;;;;;;6.97;2.83;;;;;;;12.80;100.00;102148.94;4972659;28;20051;-70
2023/06/04 05:18:00;;;;;;;10.60;2.92;;;;;;;13.02;100.00;102161.53;4965328;28;20050;-71
2023/06/04 05:20:27;;;;;;;9.68;3.10;;;;;;;13.00;100.00;102166.81;4967463;28;20047;-70
2023/06/04 05:22:55;;;;;;;7.63;2.80;;;;;;;13.01;100.00;102157.16;4972917;28;20129;-70
2023/06/04 05:25:22;;;;;;;10.07;3.85;;;;;;;12.83;100.00;102158.50;4973283;28;20046;-70
2023/06/04 05:27:50;;;;;;;8.10;2.53;;;;;;;12.76;100.00;102162.16;4972205;28;20485;-70
2023/06/04 05:30:16;;;;;;;7.93;2.50;;;;;;;12.88;100.00;102151.34;4972494;28;20461;-70
2023/06/04 05:32:43;;;;;;;10.35;2.75;;;;;;;13.01;100.00;102165.91;4973290;28;20062;-69
2023/06/04 05:35:10;;;;;;;7.13;2.47;;;;;;;13.03;100.00;102156.25;4972722;28;20331;-69
2023/06/04 05:37:37;;;;;;;7.05;2.35;;;;;;;13.20;100.00;102154.94;4971322;28;20065;-69
2023/06/04 05:40:05;;;;;;;7.22;2.30;;;;;;;13.33;100.00;102158.13;4972821;28;20047;-70
2023/06/04 05:42:32;;;;;;;7.88;2.60;;;;;;;13.46;100.00;102164.81;4971084;28;20062;-70
2023/06/04 05:44:59;;;;;;;6.72;2.17;;;;;;;13.43;100.00;102162.25;4971198;28;20047;-69
2023/06/04 05:47:28;;;;;;;7.10;2.45;;;;;;;13.23;100.00;102158.34;4972483;28;20504;-70
2023/06/04 05:49:56;;;;;;;7.22;2.35;;;;;;;13.23;100.00;102162.75;4972793;28;20062;-69
2023/06/04 05:52:23;;;;;;;5.80;2.20;;;;;;;13.20;100.00;102158.41;4972953;28;20082;-70
2023/06/04 05:54:50;;;;;;;8.30;2.60;;;;;;;13.29;100.00;102165.22;4972758;28;20418;-70
2023/06/04 05:57:17;;;;;;;7.40;2.35;;;;;;;13.31;100.00;102160.81;4973115;28;20458;-70
2023/06/04 05:59:43;;;;;;;8.55;3.13;;;;;;;13.40;100.00;102154.44;4967341;28;20078;-70
2023/06/04 06:02:10;;;;;;;8.77;2.67;;;;;;;13.48;100.00;102165.63;4972965;28;20065;-69
2023/06/04 06:04:37;;;;;;;7.10;2.45;;;;;;;13.33;100.00;102155.50;4973398;28;20051;-69
2023/06/04 06:07:04;;;;;;;8.93;2.90;;;;;;;13.36;100.00;102168.59;4968682;28;20106;-69
2023/06/04 06:09:31;;;;;;;10.00;3.80;;;;;;;13.40;100.00;102163.22;4972972;28;20062;-70
2023/06/04 06:11:58;;;;;;;11.10;4.15;;;;;;;13.12;100.00;102152.50;4983023;28;20555;-70
2023/06/04 06:14:25;;;;;;;8.05;3.35;;;;;;;13.18;100.00;102164.63;4971714;28;20072;-70
2023/06/04 06:16:53;;;;;;;11.85;3.65;;;;;;;13.10;100.00;102149.03;4971986;28;20134;-69
2023/06/04 06:19:20;;;;;;;6.65;2.60;;;;;;;13.09;100.00;102171.00;4972818;28;20046;-69
2023/06/04 06:21:47;;;;;;;8.43;2.65;;;;;;;13.22;100.00;102151.34;4972268;28;20062;-69
2023/06/04 06:24:13;;;;;;;7.22;2.72;;;;;;;13.36;100.00;102166.81;4972441;28;20046;-70
2023/06/04 06:26:40;;;;;;;8.13;2.88;;;;;;;13.38;100.00;102169.41;4971782;28;20057;-69
2023/06/04 06:29:07;;;;;;;6.45;2.42;;;;;;;13.32;100.00;102151.16;4969146;28;20058;-69
2023/06/04 06:31:34;;;;;;;8.15;2.58;;;;;;;13.44;100.00;102146.44;4972407;28;20063;-70
2023/06/04 06:34:00;;;;;;;8.85;3.15;;;;;;;13.51;100.00;102165.56;4972737;28;20133;-70
2023/06/04 06:36:28;;;;;;;8.40;2.50;;;;;;;13.41;100.00;102167.56;4971263;28;20481;-70
2023/06/04 06:38:56;;;;;;;7.85;2.90;;;;;;;13.47;100.00;102180.56;4971725;28;20058;-69
2023/06/04 06:41:26;;;;;;;7.60;2.75;;;;;;;13.52;100.00;102172.53;4954544;28;20054;-69
2023/06/04 06:43:52;;;;;;;7.57;2.72;;;;;;;13.58;100.00;102171.47;4970268;28;20529;-70
2023/06/04 06:46:19;;;;;;;8.60;3.13;;;;;;;13.62;100.00;102171.38;4969192;28;20054;-70
2023/06/04 06:48:46;;;;;;;8.80;2.60;;;;;;;13.67;100.00;102169.47;4964833;28;20054;-69
2023/06/04 06:51:13;;;;;;;9.35;2.60;;;;;;;13.57;100.00;102165.38;4971570;28;20053;-70
2023/06/04 06:53:40;;;;;;;8.52;2.70;;;;;;;13.59;100.00;102154.81;4971720;28;20051;-69
2023/06/04 06:56:07;;;;;;;6.65;2.50;;;;;;;13.64;100.00;102164.28;4970769;28;20051;-71
2023/06/04 06:58:33;;;;;;;7.80;2.53;;;;;;;13.63;100.00;102161.69;4968639;28;20050;-70
2023/06/04 07:01:01;;;;;;;9.90;3.13;;;;;;;13.63;100.00;102154.69;4969306;28;20081;-70
2023/06/04 07:03:27;;;;;;;9.30;3.20;;;;;;;13.51;100.00;102130.47;4969290;28;20069;-70
2023/06/04 07:05:55;;;;;;;9.23;3.33;;;;;;;13.73;100.00;102168.44;4969764;28;20070;-71
2023/06/04 07:08:21;;;;;;;9.02;3.28;;;;;;;13.74;100.00;102164.03;4971176;28;20050;-69
2023/06/04 07:10:48;;;;;;;8.02;3.10;;;;;;;13.61;100.00;102161.72;4971012;28;21265;-71
2023/06/04 07:13:16;;;;;;;6.57;2.25;;;;;;;13.54;100.00;102168.06;4969515;28;20043;-70
2023/06/04 07:15:43;;;;;;;11.18;3.30;;;;;;;13.72;100.00;102168.47;4952950;28;20043;-70
2023/06/04 07:18:10;;;;;;;7.65;2.83;;;;;;;13.89;100.00;102168.00;4967939;28;20054;-71
2023/06/04 07:20:36;;;;;;;9.70;2.78;;;;;;;14.09;100.00;102165.66;4970299;28;20046;-70
2023/06/04 07:23:03;;;;;;;6.32;2.05;;;;;;;14.26;100.00;102164.31;4965192;28;20058;-70
2023/06/04 07:25:30;;;;;;;6.85;2.70;;;;;;;14.31;100.00;102168.50;4965838;28;20138;-70
2023/06/04 07:27:57;;;;;;;8.55;3.20;;;;;;;13.93;100.00;102161.75;4963525;28;20055;-70
2023/06/04 07:30:25;;;;;;;8.35;3.38;;;;;;;14.25;100.00;102163.41;4970541;28;20047;-69
2023/06/04 07:32:52;;;;;;;6.95;2.53;;;;;;;14.28;100.00;102151.94;4965557;28;20046;-70
2023/06/04 07:35:19;;;;;;;9.52;3.17;;;;;;;14.34;100.00;102167.53;4970063;28;20055;-70
2023/06/04 07:37:48;;;;;;;8.88;2.80;;;;;;;14.50;100.00;102168.81;4970293;28;20067;-70
2023/06/04 07:40:16;;;;;;;6.57;2.47;;;;;;;14.54;100.00;102156.41;4970474;28;20496;-70
2023/06/04 07:42:47;;;;;;;7.40;2.22;;;;;;;14.63;100.00;102166.69;4963453;28;20047;-69
2023/06/04 07:45:15;;;;;;;8.38;2.95;;;;;;;14.66;100.00;102169.22;4961549;28;20070;-70
2023/06/04 07:47:42;;;;;;;8.55;3.33;;;;;;;14.76;100.00;102168.00;4970529;28;20086;-70
2023/06/04 07:50:10;;;;;;;7.57;3.00;;;;;;;14.51;100.00;102169.69;4968854;28;20042;-70
2023/06/04 07:52:36;;;;;;;7.35;2.30;;;;;;;14.58;100.00;102147.50;4969958;28;20055;-69
2023/06/04 07:55:04;;;;;;;9.73;3.30;;;;;;;14.56;100.00;102151.94;4968835;28;20050;-70
2023/06/04 07:57:31;;;;;;;9.32;2.92;;;;;;;14.47;100.00;102163.63;4970826;28;20058;-70
2023/06/04 07:59:59;;;;;;;9.65;3.22;;;;;;;14.57;100.00;102164.19;4972195;28;20054;-70
2023/06/04 08:02:26;;;;;;;9.43;2.45;;;;;;;14.63;100.00;102166.69;4970504;28;20055;-70
2023/06/04 08:04:53;;;;;;;8.48;3.08;;;;;;;14.64;100.00;102159.63;4969027;28;20051;-70
2023/06/04 08:07:19;;;;;;;7.45;2.88;;;;;;;14.66;100.00;102163.06;4959763;28;20133;-70
2023/06/04 08:09:46;;;;;;;9.75;3.42;;;;;;;14.87;100.00;102166.78;4966304;28;20050;-71
2023/06/04 08:12:22;;;;;;;8.43;3.28;;;;;;;14.85;100.00;102165.97;4969086;28;20059;-70
2023/06/04 08:14:50;;;;;;;9.40;3.78;;;;;;;15.02;100.00;102168.94;4971039;28;20373;-70
2023/06/04 08:17:17;;;;;;;8.77;2.92;;;;;;;15.07;100.00;102166.13;4969717;28;20161;-70
2023/06/04 08:19:44;;;;;;;11.85;4.05;;;;;;;14.98;100.00;102157.63;4969425;28;20531;-70
2023/06/04 08:22:11;;;;;;;8.52;3.53;;;;;;;15.12;100.00;102158.91;4969408;28;20138;-70
2023/06/04 08:24:39;;;;;;;11.00;4.53;;;;;;;15.32;100.00;102158.25;4968586;28;20413;-70
2023/06/04 08:27:08;;;;;;;8.35;3.28;;;;;;;15.33;100.00;102163.47;4967916;28;20429;-69
2023/06/04 08:29:36;;;;;;;8.95;3.75;;;;;;;15.15;100.00;102166.72;4967365;28;20377;-70
2023/06/04 08:32:03;;;;;;;11.00;4.50;;;;;;;14.89;100.00;102163.22;4950808;28;20051;-70
2023/06/04 08:34:30;;;;;;;9.70;3.88;;;;;;;15.23;100.00;102164.72;4968794;28;20138;-70
2023/06/04 08:36:57;;;;;;;9.00;3.80;;;;;;;14.97;100.00;102169.06;4967478;28;20170;-70
2023/06/04 08:39:24;;;;;;;11.65;3.95;;;;;;;15.14;100.00;102165.03;4969866;28;20061;-70
2023/06/04 08:41:54;;;;;;;7.70;2.65;;;;;;;15.16;100.00;102166.69;4971568;28;20465;-70
2023/06/04 08:44:20;;;;;;;7.38;2.80;;;;;;;15.15;100.00;102164.94;4970484;28;20077;-70
2023/06/04 08:46:52;;;;;;;8.25;3.20;;;;;;;15.23;100.00;102162.06;4970830;28;20138;-68
2023/06/04 08:49:21;;;;;;;9.10;3.72;;;;;;;15.18;100.00;102156.09;4972039;28;20542;-71
2023/06/04 08:51:49;;;;;;;9.23;3.08;;;;;;;15.63;100.00;102171.19;4970867;28;20109;-71
2023/06/04 08:54:15;;;;;;;8.50;2.97;;;;;;;15.45;100.00;102161.31;4973028;28;20549;-70
2023/06/04 08:56:44;;;;;;;10.13;4.18;;;;;;;15.48;100.00;102163.84;4971104;28;20074;-69
2023/06/04 08:59:11;;;;;;;8.90;3.42;;;;;;;15.30;100.00;102168.00;4972376;28;20059;-70
2023/06/04 09:01:38;;;;;;;8.60;2.85;;;;;;;15.64;100.00;102162.38;4970624;28;20141;-70
2023/06/04 09:04:07;;;;;;;8.15;2.97;;;;;;;15.70;100.00;102174.50;4960638;28;20138;-70
2023/06/04 09:06:40;;;;;;;8.90;3.00;;;;;;;15.75;100.00;102168.16;4967743;28;20081;-70
2023/06/04 09:09:10;;;;;;;9.32;3.60;;;;;;;15.79;100.00;102165.41;4969686;28;20065;-70
2023/06/04 09:11:51;;;;;;;8.32;2.90;;;;;;;15.88;100.00;102173.88;4967739;28;20555;-70
2023/06/04 09:14:18;;;;;;;7.80;3.22;;;;;;;15.74;100.00;102150.59;4971387;28;20130;-70
2023/06/04 09:16:46;;;;;;;7.65;2.80;;;;;;;15.93;100.00;102160.47;4971914;28;20516;-70
2023/06/04 09:19:14;;;;;;;8.88;2.97;;;;;;;16.13;100.00;102173.78;4968379;28;20085;-70
2023/06/04 09:21:51;;;;;;;9.25;3.47;;;;;;;16.10;100.00;102180.97;4972248;28;20456;-70
2023/06/04 09:24:24;;;;;;;7.80;3.13;;;;;;;16.10;100.00;102183.63;4968065;28;20564;-70
2023/06/04 09:26:51;;;;;;;7.53;2.83;;;;;;;16.00;100.00;102184.88;4962251;28;20098;-70
2023/06/04 09:29:20;;;;;;;8.15;3.10;;;;;;;16.20;100.00;102181.47;4970398;28;20049;-71
2023/06/04 09:31:56;;;;;;;8.88;2.90;;;;;;;16.49;100.00;102188.28;4960660;28;20059;-70
2023/06/04 09:34:28;;;;;;;9.77;2.72;;;;;;;16.59;100.00;102180.84;4972040;28;20051;-69
2023/06/04 09:37:00;;;;;;;8.50;3.45;;;;;;;16.67;100.00;102182.25;4968933;28;20111;-70
2023/06/04 09:39:28;;;;;;;8.07;3.00;;;;;;;16.98;100.00;102182.81;4977588;28;20050;-70
2023/06/04 09:42:03;;;;;;;10.85;4.05;;;;;;;16.59;100.00;102183.47;4971445;28;20490;-70
2023/06/04 09:44:30;;;;;;;8.35;3.40;;;;;;;16.59;100.00;102180.84;4961832;28;20057;-71
2023/06/04 09:46:58;;;;;;;9.35;3.13;;;;;;;16.61;100.00;102171.94;4969427;28;20058;-71
2023/06/04 09:49:25;;;;;;;9.45;4.05;;;;;;;16.38;100.00;102186.06;4970733;28;20551;-71
2023/06/04 09:51:52;;;;;;;9.07;2.97;;;;;;;16.60;100.00;102180.78;4971356;28;20352;-71
2023/06/04 09:54:19;;;;;;;8.98;3.65;;;;;;;16.35;100.00;102177.41;4972236;28;20077;-71
2023/06/04 09:56:46;;;;;;;11.63;3.60;;;;;;;16.50;100.00;102187.34;4971171;28;20057;-71
2023/06/04 09:59:13;;;;;;;7.40;2.30;;;;;;;16.85;100.00;102185.97;4972367;28;20047;-71
2023/06/04 10:01:43;;;;;;;8.85;3.17;;;;;;;16.96;100.00;102192.59;4971529;28;20038;-71
2023/06/04 10:04:14;;;;;;;8.32;2.80;;;;;;;16.72;100.00;102203.25;4966738;28;20658;-71
2023/06/04 10:06:43;;;;;;;7.45;2.88;;;;;;;16.62;100.00;102208.00;4962600;28;20055;-71
2023/06/04 10:09:14;;;;;;;7.70;2.70;;;;;;;16.98;100.00;102204.88;4968104;28;20101;-71
2023/06/04 10:11:57;;;;;;;8.80;3.80;;;;;;;16.92;100.00;102209.53;4954993;28;20826;-69
2023/06/04 10:14:31;;;;;;;9.23;3.83;;;;;;;16.28;100.00;102200.56;4953494;28;20682;-71
2023/06/04 10:16:59;;;;;;;7.15;2.75;;;;;;;16.56;100.00;102197.69;4968813;28;20133;-71
2023/06/04 10:19:28;;;;;;;10.60;3.42;;;;;;;16.78;100.00;102194.19;4968577;28;20046;-71
2023/06/04 10:21:56;;;;;;;9.02;3.92;;;;;;;16.69;100.00;102192.78;4970069;28;20043;-70
2023/06/04 10:24:24;;;;;;;13.15;3.85;;;;;;;17.19;100.00;102208.41;4949480;28;20039;-70
2023/06/04 10:26:55;;;;;;;8.82;2.42;;;;;;;17.12;100.00;102201.63;4970336;28;20503;-70
2023/06/04 10:29:29;;;;;;;7.50;2.80;;;;;;;17.02;100.00;102206.44;4967671;28;20421;-70
2023/06/04 10:31:57;;;;;;;8.57;2.88;;;;;;;17.12;100.00;102200.75;4968696;28;20433;-71
2023/06/04 10:34:26;;;;;;;9.05;3.17;;;;;;;16.91;100.00;102211.34;4969281;28;20616;-70
2023/06/04 10:36:53;;;;;;;9.55;3.70;;;;;;;16.37;100.00;102202.84;4952974;28;20465;-70
2023/06/04 10:39:32;;;;;;;7.63;2.80;;;;;;;17.03;100.00;102202.00;4970827;28;20134;-70
2023/06/04 10:42:03;;;;;;;8.75;3.40;;;;;;;16.64;100.00;102200.03;4962529;28;20186;-70
2023/06/04 10:44:31;;;;;;;7.68;2.40;;;;;;;16.83;100.00;102197.50;4969128;28;20409;-70
2023/06/04 10:46:59;;;;;;;7.75;2.95;;;;;;;17.24;100.00;102205.53;4964848;28;20089;-70
2023/06/04 10:49:34;;;;;;;9.73;2.67;;;;;;;17.19;100.00;102200.47;4970247;28;20528;-70
2023/06/04 10:52:12;;;;;;;7.00;2.50;;;;;;;16.95;100.00;102186.47;4964115;28;20198;-70
2023/06/04 10:54:42;;;;;;;7.82;3.20;;;;;;;16.92;100.00;102189.22;4963881;28;20597;-70
2023/06/04 10:57:15;;;;;;;6.63;2.25;;;;;;;16.90;100.00;102199.00;4972462;28;20145;-70
2023/06/04 10:59:57;;;;;;;6.10;2.30;;;;;;;17.66;100.00;102194.03;4950816;28;20572;-67
2023/06/04 11:02:23;;;;;;;6.32;2.30;;;;;;;17.76;100.00;102202.41;4969146;28;20397;-68
2023/06/04 11:05:05;;;;;;;7.10;2.30;;;;;;;18.00;100.00;102190.75;4968994;28;20127;-70
2023/06/04 11:07:43;;;;;;;10.32;3.75;;;;;;;17.85;100.00;102191.44;4968723;28;20050;-71
2023/06/04 11:10:13;;;;;;;7.28;2.65;;;;;;;17.97;100.00;102190.91;4964102;28;20124;-70
2023/06/04 11:12:43;;;;;;;8.68;3.20;;;;;;;18.00;100.00;102203.13;4969220;28;20401;-70
2023/06/04 11:15:15;;;;;;;8.53;3.30;;;;;;;17.57;100.00;102200.59;4951111;28;20050;-71
2023/06/04 11:17:51;;;;;;;8.52;2.92;;;;;;;17.53;100.00;102190.19;4966906;28;21024;-72
2023/06/04 11:20:20;;;;;;;7.18;2.63;;;;;;;17.68;100.00;102181.56;4966024;28;20065;-71
2023/06/04 11:22:58;;;;;;;9.63;2.80;;;;;;;17.58;100.00;102189.09;4969714;28;20078;-71